createdAt,value
2023-05-10T00:02:14.613Z,101892.91
2023-05-10T00:04:41.419Z,101894.63
2023-05-10T00:07:08.165Z,101888.97
2023-05-10T00:09:34.916Z,101887.16
2023-05-10T00:12:01.649Z,101885.63
2023-05-10T00:14:28.470Z,101884.19
2023-05-10T00:16:55.333Z,101884.19
2023-05-10T00:19:22.093Z,101896.34
2023-05-10T00:21:48.851Z,101883.00
2023-05-10T00:24:15.744Z,101883.97
2023-05-10T00:26:43.385Z,101890.19
2023-05-10T00:29:10.156Z,101889.75
2023-05-10T00:31:36.969Z,101894.03
2023-05-10T00:34:03.755Z,101893.09
2023-05-10T00:36:30.554Z,101894.19
2023-05-10T00:38:57.376Z,101888.22
2023-05-10T00:41:24.196Z,101886.81
2023-05-10T00:43:50.954Z,101896.31
2023-05-10T00:46:18.302Z,101886.28
2023-05-10T00:48:45.112Z,101894.81
2023-05-10T00:51:11.917Z,101893.13
2023-05-10T00:53:38.971Z,101888.25
2023-05-10T00:56:06.589Z,101889.28
2023-05-10T00:58:33.393Z,101892.03
2023-05-10T01:01:00.220Z,101878.56
2023-05-10T01:03:27.407Z,101883.84
2023-05-10T01:05:54.246Z,101881.25
2023-05-10T01:08:21.375Z,101881.25
2023-05-10T01:10:50.206Z,101876.22
2023-05-10T01:13:34.377Z,101876.38
2023-05-10T01:16:03.483Z,101874.06
2023-05-10T01:18:31.099Z,101876.84
2023-05-10T01:21:15.785Z,101884.44
2023-05-10T01:23:52.658Z,101871.97
2023-05-10T01:26:37.701Z,101880.44
2023-05-10T01:29:31.402Z,101884.84
2023-05-10T01:32:32.085Z,101871.41
2023-05-10T01:35:03.933Z,101872.34
2023-05-10T01:38:08.282Z,101875.97
2023-05-10T01:40:48.278Z,101863.41
2023-05-10T01:43:24.290Z,101882.38
2023-05-10T01:46:06.220Z,101877.38
2023-05-10T01:48:32.968Z,101874.97
2023-05-10T01:50:59.750Z,101868.91
2023-05-10T01:53:26.793Z,101864.22
2023-05-10T01:55:54.723Z,101870.94
2023-05-10T01:58:23.909Z,101880.41
2023-05-10T02:00:51.031Z,101874.28
2023-05-10T02:03:17.967Z,101881.16
2023-05-10T02:05:46.127Z,101880.31
2023-05-10T02:08:12.855Z,101868.41
2023-05-10T02:10:39.895Z,101870.25
2023-05-10T02:13:07.332Z,101862.69
2023-05-10T02:15:34.133Z,101869.63
2023-05-10T02:18:01.384Z,101865.41
2023-05-10T02:20:28.294Z,101858.72
2023-05-10T02:22:55.889Z,101863.16
2023-05-10T02:25:23.064Z,101851.53
2023-05-10T02:27:49.836Z,101861.66
2023-05-10T02:30:17.357Z,101864.25
2023-05-10T02:32:44.724Z,101860.75
2023-05-10T02:35:11.506Z,101867.78
2023-05-10T02:37:38.675Z,101869.69
2023-05-10T02:40:06.609Z,101859.50
2023-05-10T02:42:34.444Z,101868.75
2023-05-10T02:45:02.347Z,101855.34
2023-05-10T02:47:29.922Z,101865.69
2023-05-10T02:49:56.707Z,101860.38
2023-05-10T02:52:26.228Z,101865.47
2023-05-10T02:54:55.822Z,101859.72
2023-05-10T02:57:34.937Z,101861.50
2023-05-10T03:00:03.582Z,101869.19
2023-05-10T03:02:31.614Z,101851.13
2023-05-10T03:04:58.442Z,101875.69
2023-05-10T03:07:25.231Z,101862.09
2023-05-10T03:09:52.041Z,101866.25
2023-05-10T03:12:40.272Z,101878.38
2023-05-10T03:15:31.561Z,101873.31
2023-05-10T03:18:03.299Z,101864.22
2023-05-10T03:20:37.267Z,101864.22
2023-05-10T03:23:25.924Z,101866.97
2023-05-10T03:25:52.679Z,101852.56
2023-05-10T03:28:19.657Z,101861.31
2023-05-10T03:30:46.560Z,101871.88
2023-05-10T03:33:14.222Z,101863.50
2023-05-10T03:35:41.014Z,101856.75
2023-05-10T03:38:07.758Z,101855.13
2023-05-10T03:40:34.535Z,101853.44
2023-05-10T03:43:01.305Z,101860.91
2023-05-10T03:45:28.176Z,101865.81
2023-05-10T03:47:55.116Z,101860.63
2023-05-10T03:50:22.164Z,101864.63
2023-05-10T03:52:49.068Z,101846.31
2023-05-10T03:55:16.104Z,101848.22
2023-05-10T03:57:42.908Z,101845.41
2023-05-10T04:00:10.715Z,101856.63
2023-05-10T04:02:38.454Z,101844.97
2023-05-10T04:05:05.862Z,101855.38
2023-05-10T04:07:32.620Z,101841.91
2023-05-10T04:09:59.339Z,101840.44
2023-05-10T04:12:26.221Z,101843.69
2023-05-10T04:14:52.961Z,101848.72
2023-05-10T04:17:19.796Z,101843.56
2023-05-10T04:19:46.617Z,101848.28
2023-05-10T04:22:13.379Z,101835.78
2023-05-10T04:24:40.136Z,101837.97
2023-05-10T04:27:06.886Z,101828.53
2023-05-10T04:29:33.638Z,101830.94
2023-05-10T04:32:00.432Z,101836.31
2023-05-10T04:34:27.189Z,101838.59
2023-05-10T04:36:53.950Z,101829.16
2023-05-10T04:39:20.688Z,101838.94
2023-05-10T04:41:47.514Z,101839.13
2023-05-10T04:44:14.323Z,101836.97
2023-05-10T04:46:41.208Z,101830.25
2023-05-10T04:49:07.972Z,101817.88
2023-05-10T04:51:34.780Z,101824.47
2023-05-10T04:54:06.640Z,101833.66
2023-05-10T04:56:34.289Z,101831.06
2023-05-10T04:59:01.084Z,101837.00
2023-05-10T05:01:27.942Z,101829.81
2023-05-10T05:03:54.929Z,101835.88
2023-05-10T05:06:25.994Z,101823.28
2023-05-10T05:08:52.815Z,101830.25
2023-05-10T05:11:19.708Z,101829.66
2023-05-10T05:13:46.681Z,101835.81
2023-05-10T05:16:13.497Z,101836.50
2023-05-10T05:18:40.337Z,101837.81
2023-05-10T05:21:19.536Z,101831.22
2023-05-10T05:23:46.640Z,101830.88
2023-05-10T05:26:13.486Z,101812.88
2023-05-10T05:28:40.258Z,101827.72
2023-05-10T05:31:08.655Z,101826.25
2023-05-10T05:33:35.718Z,101833.28
2023-05-10T05:36:03.455Z,101828.25
2023-05-10T05:38:30.243Z,101830.00
2023-05-10T05:40:57.003Z,101828.06
2023-05-10T05:43:23.936Z,101830.78
2023-05-10T05:45:50.761Z,101822.75
2023-05-10T05:48:17.558Z,101824.41
2023-05-10T05:50:44.331Z,101820.66
2023-05-10T05:53:11.113Z,101813.38
2023-05-10T05:55:38.037Z,101815.28
2023-05-10T05:58:04.789Z,101811.38
2023-05-10T06:00:31.591Z,101812.00
2023-05-10T06:02:58.379Z,101818.97
2023-05-10T06:05:25.414Z,101810.13
2023-05-10T06:07:52.232Z,101821.00
2023-05-10T06:10:19.096Z,101803.28
2023-05-10T06:12:46.161Z,101818.09
2023-05-10T06:15:13.071Z,101809.75
2023-05-10T06:17:39.970Z,101809.72
2023-05-10T06:20:07.696Z,101812.84
2023-05-10T06:22:34.463Z,101805.16
2023-05-10T06:25:01.213Z,101810.34
2023-05-10T06:27:27.988Z,101805.59
2023-05-10T06:30:02.198Z,101810.00
2023-05-10T06:32:36.333Z,101812.97
2023-05-10T06:35:03.164Z,101806.06
2023-05-10T06:37:29.876Z,101799.63
2023-05-10T06:39:57.079Z,101805.00
2023-05-10T06:42:26.433Z,101792.06
2023-05-10T06:44:53.175Z,101806.13
2023-05-10T06:47:19.998Z,101820.16
2023-05-10T06:49:46.759Z,101809.56
2023-05-10T06:52:13.580Z,101806.34
2023-05-10T06:54:40.316Z,101794.59
2023-05-10T06:57:16.065Z,101799.69
2023-05-10T06:59:46.579Z,101810.44
2023-05-10T07:02:13.464Z,101806.63
2023-05-10T07:04:40.606Z,101800.59
2023-05-10T07:07:07.505Z,101806.50
2023-05-10T07:09:34.616Z,101798.03
2023-05-10T07:12:03.602Z,101797.75
2023-05-10T07:14:31.074Z,101808.75
2023-05-10T07:16:57.860Z,101809.66
2023-05-10T07:19:24.816Z,101793.44
2023-05-10T07:21:52.033Z,101792.00
2023-05-10T07:24:18.943Z,101790.31
2023-05-10T07:26:45.739Z,101790.53
2023-05-10T07:29:12.999Z,101797.69
2023-05-10T07:31:39.880Z,101798.94
2023-05-10T07:34:06.657Z,101789.88
2023-05-10T07:36:33.504Z,101785.63
2023-05-10T07:39:00.350Z,101785.06
2023-05-10T07:41:27.112Z,101787.91
2023-05-10T07:43:53.862Z,101787.72
2023-05-10T07:46:20.914Z,101792.72
2023-05-10T07:48:47.781Z,101799.38
2023-05-10T07:51:14.711Z,101786.88
2023-05-10T07:53:41.622Z,101791.34
2023-05-10T07:56:42.972Z,101787.25
2023-05-10T07:59:11.345Z,101778.16
2023-05-10T08:01:39.364Z,101780.03
2023-05-10T08:04:06.240Z,101775.09
2023-05-10T08:06:33.057Z,101777.19
2023-05-10T08:08:59.885Z,101771.63
2023-05-10T08:11:26.833Z,101778.28
2023-05-10T08:13:54.041Z,101781.31
2023-05-10T08:16:21.066Z,101771.16
2023-05-10T08:18:48.340Z,101777.38
2023-05-10T08:21:15.772Z,101768.41
2023-05-10T08:23:42.585Z,101775.41
2023-05-10T08:26:09.358Z,101752.06
2023-05-10T08:28:36.158Z,101773.16
2023-05-10T08:31:02.967Z,101754.44
2023-05-10T08:33:29.706Z,101746.56
2023-05-10T08:35:56.454Z,101753.44
2023-05-10T08:38:23.225Z,101750.53
2023-05-10T08:40:51.912Z,101745.53
2023-05-10T08:43:18.805Z,101760.25
2023-05-10T08:45:48.260Z,101748.19
2023-05-10T08:48:15.495Z,101751.88
2023-05-10T08:50:43.015Z,101744.06
2023-05-10T08:53:14.312Z,101760.41
2023-05-10T08:55:43.812Z,101746.47
2023-05-10T08:58:10.674Z,101757.44
2023-05-10T09:00:38.405Z,101741.81
2023-05-10T09:03:05.727Z,101748.75
2023-05-10T09:05:32.974Z,101749.84
2023-05-10T09:08:02.537Z,101738.22
2023-05-10T09:10:29.418Z,101757.50
2023-05-10T09:12:59.415Z,101750.72
2023-05-10T09:15:26.463Z,101748.50
2023-05-10T09:17:53.249Z,101751.00
2023-05-10T09:20:20.237Z,101731.59
2023-05-10T09:22:47.010Z,101748.91
2023-05-10T09:25:14.977Z,101728.50
2023-05-10T09:27:42.728Z,101740.31
2023-05-10T09:30:10.268Z,101751.16
2023-05-10T09:32:48.194Z,101738.59
2023-05-10T09:35:19.153Z,101750.00
2023-05-10T09:37:48.890Z,101740.16
2023-05-10T09:40:20.435Z,101732.31
2023-05-10T09:42:59.194Z,101742.88
2023-05-10T09:45:27.432Z,101742.13
2023-05-10T09:47:54.248Z,101733.75
2023-05-10T09:50:21.643Z,101739.19
2023-05-10T09:52:52.799Z,101735.16
2023-05-10T09:55:24.435Z,101733.84
2023-05-10T09:58:00.134Z,101743.75
2023-05-10T10:00:27.225Z,101719.16
2023-05-10T10:03:00.777Z,101735.44
2023-05-10T10:05:34.751Z,101726.59
2023-05-10T10:08:05.972Z,101706.81
2023-05-10T10:10:33.546Z,101722.38
2023-05-10T10:13:00.771Z,101726.66
2023-05-10T10:15:27.688Z,101708.59
2023-05-10T10:17:54.728Z,101689.03
2023-05-10T10:20:23.357Z,101697.50
2023-05-10T10:22:50.223Z,101698.31
2023-05-10T10:25:18.459Z,101698.22
2023-05-10T10:27:54.667Z,101690.84
2023-05-10T10:30:50.697Z,101695.22
2023-05-10T10:33:36.213Z,101683.28
2023-05-10T10:36:03.739Z,101696.53
2023-05-10T10:38:49.068Z,101678.78
2023-05-10T10:41:37.906Z,101682.34
2023-05-10T10:44:24.671Z,101678.63
2023-05-10T10:47:14.989Z,101676.97
2023-05-10T10:49:45.001Z,101675.50
2023-05-10T10:52:37.164Z,101675.56
2023-05-10T10:55:08.057Z,101669.59
2023-05-10T10:58:05.698Z,101670.75
2023-05-10T11:00:41.045Z,101649.81
2023-05-10T11:03:15.841Z,101657.19
2023-05-10T11:05:46.549Z,101668.63
2023-05-10T11:08:32.356Z,101662.59
2023-05-10T11:11:01.941Z,101671.84
2023-05-10T11:13:35.697Z,101663.97
2023-05-10T11:16:24.926Z,101660.72
2023-05-10T11:18:57.953Z,101655.47
2023-05-10T11:21:24.865Z,101658.50
2023-05-10T11:23:53.331Z,101644.97
2023-05-10T11:26:20.312Z,101638.72
2023-05-10T11:28:48.375Z,101646.78
2023-05-10T11:31:16.173Z,101615.84
2023-05-10T11:33:46.930Z,101636.50
2023-05-10T11:36:20.412Z,101635.34
2023-05-10T11:38:47.460Z,101637.47
2023-05-10T11:41:14.276Z,101637.06
2023-05-10T11:43:41.205Z,101628.13
2023-05-10T11:46:08.773Z,101640.66
2023-05-10T11:48:35.819Z,101629.16
2023-05-10T11:51:03.210Z,101640.28
2023-05-10T11:53:33.784Z,101615.06
2023-05-10T11:56:05.491Z,101621.53
2023-05-10T11:58:32.876Z,101632.84
2023-05-10T12:01:00.703Z,101632.22
2023-05-10T12:03:28.900Z,101615.25
2023-05-10T12:05:56.523Z,101624.28
2023-05-10T12:08:27.239Z,101640.88
2023-05-10T12:10:54.999Z,101632.34
2023-05-10T12:13:22.144Z,101622.66
2023-05-10T12:15:48.974Z,101616.03
2023-05-10T12:18:16.117Z,101624.22
2023-05-10T12:20:43.578Z,101617.22
2023-05-10T12:23:11.005Z,101618.63
2023-05-10T12:25:38.304Z,101627.94
2023-05-10T12:28:06.178Z,101615.00
2023-05-10T12:30:50.753Z,101617.81
2023-05-10T12:33:18.423Z,101580.50
2023-05-10T12:35:52.974Z,101607.41
2023-05-10T12:38:44.270Z,101619.91
2023-05-10T12:41:12.433Z,101612.28
2023-05-10T12:43:39.883Z,101603.22
2023-05-10T12:46:14.044Z,101609.88
2023-05-10T12:48:41.664Z,101615.78
2023-05-10T12:51:12.919Z,101604.28
2023-05-10T12:53:41.812Z,101612.28
2023-05-10T12:56:11.052Z,101605.28
2023-05-10T12:58:37.893Z,101602.69
2023-05-10T13:01:05.873Z,101590.47
2023-05-10T13:03:32.754Z,101605.63
2023-05-10T13:05:59.678Z,101600.81
2023-05-10T13:08:26.672Z,101596.34
2023-05-10T13:10:53.395Z,101597.84
2023-05-10T13:13:20.133Z,101588.28
2023-05-10T13:15:46.902Z,101598.84
2023-05-10T13:18:14.068Z,101594.16
2023-05-10T13:20:40.977Z,101597.16
2023-05-10T13:23:07.673Z,101606.03
2023-05-10T13:25:35.433Z,101588.41
2023-05-10T13:28:02.274Z,101582.09
2023-05-10T13:30:29.872Z,101582.91
2023-05-10T13:32:56.744Z,101596.88
2023-05-10T13:35:23.586Z,101582.94
2023-05-10T13:37:50.434Z,101586.09
2023-05-10T13:40:17.989Z,101594.00
2023-05-10T13:42:44.965Z,101594.53
2023-05-10T13:45:13.422Z,101590.66
2023-05-10T13:47:40.384Z,101583.69
2023-05-10T13:50:07.917Z,101577.75
2023-05-10T13:52:34.848Z,101577.63
2023-05-10T13:55:01.694Z,101577.09
2023-05-10T13:57:29.856Z,101571.88
2023-05-10T13:59:58.150Z,101574.16
2023-05-10T14:02:25.909Z,101567.41
2023-05-10T14:04:52.787Z,101572.63
2023-05-10T14:07:19.556Z,101575.72
2023-05-10T14:09:46.318Z,101556.72
2023-05-10T14:12:13.170Z,101537.13
2023-05-10T14:14:40.180Z,101560.97
2023-05-10T14:17:07.068Z,101562.25
2023-05-10T14:19:35.048Z,101562.66
2023-05-10T14:22:01.866Z,101559.69
2023-05-10T14:24:28.764Z,101558.66
2023-05-10T14:26:55.521Z,101552.91
2023-05-10T14:29:23.115Z,101520.81
2023-05-10T14:31:51.039Z,101544.66
2023-05-10T14:34:17.928Z,101544.34
2023-05-10T14:36:44.700Z,101543.53
2023-05-10T14:39:14.345Z,101556.41
2023-05-10T14:41:43.996Z,101558.69
2023-05-10T14:44:11.168Z,101547.56
2023-05-10T14:46:38.381Z,101549.63
2023-05-10T14:49:05.170Z,101533.84
2023-05-10T14:51:32.816Z,101554.13
2023-05-10T14:53:59.925Z,101546.25
2023-05-10T14:56:29.402Z,101541.63
2023-05-10T14:58:56.601Z,101545.66
2023-05-10T15:01:24.025Z,101550.47
2023-05-10T15:03:51.813Z,101547.28
2023-05-10T15:06:19.272Z,101541.16
2023-05-10T15:08:46.886Z,101538.75
2023-05-10T15:11:13.695Z,101540.88
2023-05-10T15:13:40.569Z,101533.38
2023-05-10T15:16:07.457Z,101550.28
2023-05-10T15:18:34.300Z,101543.78
2023-05-10T15:21:01.132Z,101529.28
2023-05-10T15:23:28.152Z,101537.50
2023-05-10T15:25:56.877Z,101536.06
2023-05-10T15:28:23.775Z,101547.16
2023-05-10T15:30:51.001Z,101542.94
2023-05-10T15:33:17.819Z,101528.03
2023-05-10T15:35:44.581Z,101532.13
2023-05-10T15:38:11.390Z,101549.13
2023-05-10T15:40:38.344Z,101548.97
2023-05-10T15:43:06.379Z,101542.44
2023-05-10T15:45:34.598Z,101551.06
2023-05-10T15:48:03.698Z,101550.91
2023-05-10T15:50:30.447Z,101539.78
2023-05-10T15:52:57.385Z,101526.78
2023-05-10T15:55:24.076Z,101530.47
2023-05-10T15:57:51.497Z,101543.84
2023-05-10T16:00:19.120Z,101527.47
2023-05-10T16:02:46.129Z,101551.75
2023-05-10T16:05:14.009Z,101545.19
2023-05-10T16:07:42.134Z,101553.78
2023-05-10T16:10:10.817Z,101535.09
2023-05-10T16:12:37.988Z,101543.00
2023-05-10T16:15:05.261Z,101546.59
2023-05-10T16:17:32.407Z,101547.91
2023-05-10T16:19:59.176Z,101547.03
2023-05-10T16:22:27.451Z,101550.72
2023-05-10T16:24:54.306Z,101562.94
2023-05-10T16:27:21.163Z,101558.03
2023-05-10T16:29:48.245Z,101553.81
2023-05-10T16:32:14.939Z,101561.41
2023-05-10T16:34:41.795Z,101566.34
2023-05-10T16:37:08.622Z,101562.84
2023-05-10T16:39:35.352Z,101554.13
2023-05-10T16:42:02.176Z,101555.03
2023-05-10T16:44:28.991Z,101556.41
2023-05-10T16:46:56.085Z,101573.41
2023-05-10T16:49:24.498Z,101567.50
2023-05-10T16:51:52.813Z,101568.91
2023-05-10T16:54:20.810Z,101578.59
2023-05-10T16:56:47.729Z,101582.88
2023-05-10T16:59:14.445Z,101577.00
2023-05-10T17:01:41.249Z,101575.69
2023-05-10T17:04:08.434Z,101574.78
2023-05-10T17:06:36.941Z,101573.06
2023-05-10T17:09:15.905Z,101584.00
2023-05-10T17:11:42.721Z,101589.03
2023-05-10T17:14:10.262Z,101586.09
2023-05-10T17:16:37.079Z,101587.94
2023-05-10T17:19:03.898Z,101592.28
2023-05-10T17:21:31.921Z,101580.84
2023-05-10T17:23:58.625Z,101589.66
2023-05-10T17:26:27.609Z,101585.41
2023-05-10T17:28:55.010Z,101596.19
2023-05-10T17:31:21.812Z,101609.78
2023-05-10T17:33:53.317Z,101602.31
2023-05-10T17:36:20.099Z,101599.53
2023-05-10T17:38:46.960Z,101612.09
2023-05-10T17:41:14.529Z,101610.41
2023-05-10T17:43:41.267Z,101610.72
2023-05-10T17:46:08.081Z,101611.16
2023-05-10T17:48:36.959Z,101619.03
2023-05-10T17:51:04.403Z,101625.66
2023-05-10T17:53:31.321Z,101619.84
2023-05-10T17:55:59.059Z,101626.25
2023-05-10T17:58:25.862Z,101637.81
2023-05-10T18:00:52.959Z,101639.06
2023-05-10T18:03:19.751Z,101641.03
2023-05-10T18:05:47.106Z,101645.28
2023-05-10T18:08:14.321Z,101631.69
2023-05-10T18:10:41.555Z,101633.41
2023-05-10T18:13:08.944Z,101636.28
2023-05-10T18:15:35.823Z,101637.84
2023-05-10T18:18:04.233Z,101653.31
2023-05-10T18:20:31.760Z,101655.38
2023-05-10T18:22:58.667Z,101657.78
2023-05-10T18:25:25.819Z,101668.28
2023-05-10T18:27:52.819Z,101672.63
2023-05-10T18:30:19.646Z,101673.56
2023-05-10T18:32:46.444Z,101673.59
2023-05-10T18:35:13.163Z,101676.78
2023-05-10T18:37:39.948Z,101682.69
2023-05-10T18:40:12.619Z,101676.81
2023-05-10T18:42:39.377Z,101681.44
2023-05-10T18:45:06.806Z,101684.66
2023-05-10T18:47:33.679Z,101689.44
2023-05-10T18:50:00.597Z,101696.53
2023-05-10T18:52:27.378Z,101701.31
2023-05-10T18:54:54.071Z,101707.97
2023-05-10T18:57:22.094Z,101701.50
2023-05-10T18:59:49.178Z,101698.03
2023-05-10T19:02:15.924Z,101705.66
2023-05-10T19:04:42.815Z,101706.50
2023-05-10T19:07:09.782Z,101706.34
2023-05-10T19:09:36.667Z,101708.81
2023-05-10T19:12:03.482Z,101711.53
2023-05-10T19:14:30.242Z,101713.31
2023-05-10T19:16:57.030Z,101709.97
2023-05-10T19:19:25.308Z,101720.03
2023-05-10T19:21:52.075Z,101714.56
2023-05-10T19:24:21.872Z,101719.53
2023-05-10T19:26:49.362Z,101706.75
2023-05-10T19:29:16.482Z,101710.75
2023-05-10T19:31:44.221Z,101715.53
2023-05-10T19:34:11.770Z,101722.66
2023-05-10T19:36:38.534Z,101716.91
2023-05-10T19:39:05.481Z,101715.06
2023-05-10T19:41:32.270Z,101724.53
2023-05-10T19:43:59.901Z,101728.63
2023-05-10T19:46:27.169Z,101732.81
2023-05-10T19:48:53.932Z,101726.91
2023-05-10T19:51:20.691Z,101735.16
2023-05-10T19:53:47.444Z,101736.84
2023-05-10T19:56:14.401Z,101739.00
2023-05-10T19:58:41.227Z,101741.91
2023-05-10T20:01:08.381Z,101744.19
2023-05-10T20:03:35.841Z,101746.72
2023-05-10T20:06:03.008Z,101749.44
2023-05-10T20:08:30.036Z,101749.91
2023-05-10T20:11:02.676Z,101731.34
2023-05-10T20:13:29.644Z,101731.34
2023-05-10T20:15:59.946Z,101723.84
2023-05-10T20:18:27.172Z,101740.28
2023-05-10T20:20:55.228Z,101743.34
2023-05-10T20:23:22.411Z,101745.00
2023-05-10T20:25:49.246Z,101732.47
2023-05-10T20:28:16.005Z,101733.06
2023-05-10T20:30:42.874Z,101739.94
2023-05-10T20:33:09.842Z,101740.75
2023-05-10T20:35:36.702Z,101747.03
2023-05-10T20:38:04.180Z,101742.47
2023-05-10T20:40:31.903Z,101740.22
2023-05-10T20:42:58.732Z,101742.56
2023-05-10T20:45:25.526Z,101738.78
2023-05-10T20:47:53.581Z,101744.59
2023-05-10T20:50:20.791Z,101741.91
2023-05-10T20:52:48.046Z,101751.41
2023-05-10T20:55:14.933Z,101759.38
2023-05-10T20:57:41.760Z,101755.03
2023-05-10T21:00:09.622Z,101752.88
2023-05-10T21:02:36.463Z,101754.88
2023-05-10T21:05:03.378Z,101749.66
2023-05-10T21:07:32.399Z,101760.84
2023-05-10T21:09:59.235Z,101755.31
2023-05-10T21:12:26.121Z,101760.66
2023-05-10T21:14:52.868Z,101767.13
2023-05-10T21:17:20.355Z,101767.47
2023-05-10T21:19:47.329Z,101773.84
2023-05-10T21:22:14.059Z,101765.94
2023-05-10T21:24:40.999Z,101770.59
2023-05-10T21:27:09.131Z,101783.47
2023-05-10T21:29:35.894Z,101786.28
2023-05-10T21:32:02.888Z,101784.91
2023-05-10T21:34:29.940Z,101788.59
2023-05-10T21:36:56.701Z,101785.34
2023-05-10T21:39:23.445Z,101777.41
2023-05-10T21:41:50.186Z,101791.28
2023-05-10T21:44:16.916Z,101784.06
2023-05-10T21:46:44.322Z,101790.13
2023-05-10T21:49:11.143Z,101792.09
2023-05-10T21:51:37.943Z,101798.47
2023-05-10T21:54:04.934Z,101787.59
2023-05-10T21:56:31.633Z,101795.53
2023-05-10T21:58:58.641Z,101803.06
2023-05-10T22:01:25.911Z,101788.31
2023-05-10T22:03:52.700Z,101792.69
2023-05-10T22:06:19.459Z,101805.09
2023-05-10T22:08:46.298Z,101801.03
2023-05-10T22:11:13.079Z,101802.44
2023-05-10T22:13:39.856Z,101812.88
2023-05-10T22:16:07.043Z,101809.56
2023-05-10T22:18:33.860Z,101814.97
2023-05-10T22:21:00.927Z,101811.59
2023-05-10T22:23:27.654Z,101816.19
2023-05-10T22:25:54.371Z,101815.66
2023-05-10T22:28:21.414Z,101815.22
2023-05-10T22:30:48.544Z,101821.38
2023-05-10T22:33:15.286Z,101819.88
2023-05-10T22:35:42.046Z,101821.00
2023-05-10T22:38:08.776Z,101808.66
2023-05-10T22:40:35.538Z,101823.97
2023-05-10T22:43:02.787Z,101824.22
2023-05-10T22:45:29.551Z,101824.47
2023-05-10T22:47:56.420Z,101833.41
2023-05-10T22:50:23.525Z,101822.72
2023-05-10T22:52:50.350Z,101825.34
2023-05-10T22:55:17.418Z,101839.66
2023-05-10T22:57:44.189Z,101837.25
2023-05-10T23:00:11.486Z,101832.97
2023-05-10T23:02:38.305Z,101840.72
2023-05-10T23:05:05.844Z,101826.38
2023-05-10T23:07:32.894Z,101842.06
2023-05-10T23:09:59.677Z,101840.59
2023-05-10T23:12:26.424Z,101839.28
2023-05-10T23:14:53.394Z,101846.28
2023-05-10T23:17:20.177Z,101837.88
2023-05-10T23:19:47.145Z,101835.56
2023-05-10T23:22:13.898Z,101843.28
2023-05-10T23:24:40.718Z,101845.97
2023-05-10T23:27:07.543Z,101837.69
2023-05-10T23:29:34.854Z,101844.84
2023-05-10T23:32:01.682Z,101838.16
2023-05-10T23:34:28.415Z,101845.03
2023-05-10T23:36:55.181Z,101839.34
2023-05-10T23:39:22.083Z,101854.78
2023-05-10T23:41:48.799Z,101842.25
2023-05-10T23:44:15.682Z,101849.09
2023-05-10T23:46:42.426Z,101848.44
2023-05-10T23:49:09.176Z,101862.50
2023-05-10T23:51:36.143Z,101849.75
2023-05-10T23:54:03.034Z,101857.72
2023-05-10T23:56:29.878Z,101857.94
2023-05-10T23:58:56.578Z,101844.69
